sensor_id;sensor_type;location;lat;lon;timestamp;temperature;humidity
24207;DHT22;12351;52.284;9.160;2022-12-15T00:01:17;-3.80;99.90
24207;DHT22;12351;52.284;9.160;2022-12-15T00:04:08;-3.80;99.90
24207;DHT22;12351;52.284;9.160;2022-12-15T00:07:02;-3.80;99.90
24207;DHT22;12351;52.284;9.160;2022-12-15T00:09:51;-3.80;99.90
24207;DHT22;12351;52.284;9.160;2022-12-15T00:12:42;-3.80;99.90
24207;DHT22;12351;52.284;9.160;2022-12-15T00:15:30;-3.80;99.90
24207;DHT22;12351;52.284;9.160;2022-12-15T00:18:20;-3.80;99.90
24207;DHT22;12351;52.284;9.160;2022-12-15T00:21:09;-3.80;99.90
24207;DHT22;12351;52.284;9.160;2022-12-15T00:24:00;-3.80;99.90
24207;DHT22;12351;52.284;9.160;2022-12-15T00:26:52;-3.80;99.90
24207;DHT22;12351;52.284;9.160;2022-12-15T00:29:42;-3.80;99.90
24207;DHT22;12351;52.284;9.160;2022-12-15T00:32:34;-3.80;99.90
24207;DHT22;12351;52.284;9.160;2022-12-15T00:35:23;-3.80;99.90
24207;DHT22;12351;52.284;9.160;2022-12-15T00:38:14;-3.80;99.90
24207;DHT22;12351;52.284;9.160;2022-12-15T00:41:05;-3.80;99.90
24207;DHT22;12351;52.284;9.160;2022-12-15T00:43:54;-3.80;99.90
24207;DHT22;12351;52.284;9.160;2022-12-15T00:46:43;-3.80;99.90
24207;DHT22;12351;52.284;9.160;2022-12-15T00:49:35;-3.80;99.90
24207;DHT22;12351;52.284;9.160;2022-12-15T00:52:26;-3.80;99.90
24207;DHT22;12351;52.284;9.160;2022-12-15T00:55:15;-3.80;99.90
24207;DHT22;12351;52.284;9.160;2022-12-15T00:58:05;-3.80;99.90
24207;DHT22;12351;52.284;9.160;2022-12-15T01:00:56;-3.80;99.90
24207;DHT22;12351;52.284;9.160;2022-12-15T01:03:47;-3.70;99.90
24207;DHT22;12351;52.284;9.160;2022-12-15T01:06:37;-3.70;99.90
24207;DHT22;12351;52.284;9.160;2022-12-15T01:09:27;-3.70;99.90
24207;DHT22;12351;52.284;9.160;2022-12-15T01:12:18;-3.60;99.90
24207;DHT22;12351;52.284;9.160;2022-12-15T01:15:10;-3.60;99.90
24207;DHT22;12351;52.284;9.160;2022-12-15T01:18:00;-3.60;99.90
24207;DHT22;12351;52.284;9.160;2022-12-15T01:23:41;-3.50;99.90
24207;DHT22;12351;52.284;9.160;2022-12-15T01:26:33;-3.50;99.90
24207;DHT22;12351;52.284;9.160;2022-12-15T01:29:23;-3.50;99.90
24207;DHT22;12351;52.284;9.160;2022-12-15T01:32:12;-3.50;99.90
24207;DHT22;12351;52.284;9.160;2022-12-15T01:35:03;-3.50;99.90
24207;DHT22;12351;52.284;9.160;2022-12-15T01:37:53;-3.40;99.90
24207;DHT22;12351;52.284;9.160;2022-12-15T01:40:49;-3.40;99.90
24207;DHT22;12351;52.284;9.160;2022-12-15T01:43:37;-3.40;99.90
24207;DHT22;12351;52.284;9.160;2022-12-15T01:46:28;-3.40;99.90
24207;DHT22;12351;52.284;9.160;2022-12-15T01:52:08;-3.40;99.90
24207;DHT22;12351;52.284;9.160;2022-12-15T01:55:00;-3.30;99.90
24207;DHT22;12351;52.284;9.160;2022-12-15T01:57:51;-3.30;99.90
24207;DHT22;12351;52.284;9.160;2022-12-15T02:00:39;-3.30;99.90
24207;DHT22;12351;52.284;9.160;2022-12-15T02:03:30;-3.30;99.90
24207;DHT22;12351;52.284;9.160;2022-12-15T02:06:18;-3.30;99.90
24207;DHT22;12351;52.284;9.160;2022-12-15T02:09:09;-3.30;99.90
24207;DHT22;12351;52.284;9.160;2022-12-15T02:17:41;-3.20;99.90
24207;DHT22;12351;52.284;9.160;2022-12-15T02:23:25;-3.20;99.90
24207;DHT22;12351;52.284;9.160;2022-12-15T02:29:08;-3.20;99.90
24207;DHT22;12351;52.284;9.160;2022-12-15T02:31:54;-3.20;99.90
24207;DHT22;12351;52.284;9.160;2022-12-15T02:37:37;-3.10;99.90
24207;DHT22;12351;52.284;9.160;2022-12-15T02:40:25;-3.10;99.90
24207;DHT22;12351;52.284;9.160;2022-12-15T02:43:17;-3.10;99.90
24207;DHT22;12351;52.284;9.160;2022-12-15T02:51:48;-3.10;99.90
24207;DHT22;12351;52.284;9.160;2022-12-15T02:54:35;-3.10;99.90
24207;DHT22;12351;52.284;9.160;2022-12-15T02:57:24;-3.10;99.90
24207;DHT22;12351;52.284;9.160;2022-12-15T03:00:12;-3.10;99.90
24207;DHT22;12351;52.284;9.160;2022-12-15T03:03:03;-3.10;99.90
24207;DHT22;12351;52.284;9.160;2022-12-15T03:05:56;-3.00;99.90
24207;DHT22;12351;52.284;9.160;2022-12-15T03:08:46;-3.00;99.90
24207;DHT22;12351;52.284;9.160;2022-12-15T03:11:37;-3.00;99.90
24207;DHT22;12351;52.284;9.160;2022-12-15T03:14:29;-3.00;99.90
24207;DHT22;12351;52.284;9.160;2022-12-15T03:17:16;-3.00;99.90
24207;DHT22;12351;52.284;9.160;2022-12-15T03:20:07;-3.00;99.90
24207;DHT22;12351;52.284;9.160;2022-12-15T03:22:57;-3.00;99.90
24207;DHT22;12351;52.284;9.160;2022-12-15T03:25:49;-3.10;99.90
24207;DHT22;12351;52.284;9.160;2022-12-15T03:28:40;-3.10;99.90
24207;DHT22;12351;52.284;9.160;2022-12-15T03:31:28;-3.10;99.90
24207;DHT22;12351;52.284;9.160;2022-12-15T03:34:19;-3.10;99.90
24207;DHT22;12351;52.284;9.160;2022-12-15T03:37:07;-3.10;99.90
24207;DHT22;12351;52.284;9.160;2022-12-15T03:39:57;-3.10;99.90
24207;DHT22;12351;52.284;9.160;2022-12-15T03:42:46;-3.10;99.90
24207;DHT22;12351;52.284;9.160;2022-12-15T03:45:38;-3.10;99.90
24207;DHT22;12351;52.284;9.160;2022-12-15T03:48:27;-3.10;99.90
24207;DHT22;12351;52.284;9.160;2022-12-15T03:51:17;-3.10;99.90
24207;DHT22;12351;52.284;9.160;2022-12-15T03:54:07;-3.00;99.90
24207;DHT22;12351;52.284;9.160;2022-12-15T03:56:58;-3.00;99.90
24207;DHT22;12351;52.284;9.160;2022-12-15T03:59:49;-3.00;99.90
24207;DHT22;12351;52.284;9.160;2022-12-15T04:02:38;-3.00;99.90
24207;DHT22;12351;52.284;9.160;2022-12-15T04:05:29;-3.00;99.90
24207;DHT22;12351;52.284;9.160;2022-12-15T04:08:17;-3.00;99.90
24207;DHT22;12351;52.284;9.160;2022-12-15T04:11:07;-3.10;99.90
24207;DHT22;12351;52.284;9.160;2022-12-15T04:13:57;-3.00;99.90
24207;DHT22;12351;52.284;9.160;2022-12-15T04:16:48;-3.00;99.90
24207;DHT22;12351;52.284;9.160;2022-12-15T04:19:39;-3.00;99.90
24207;DHT22;12351;52.284;9.160;2022-12-15T04:22:29;-3.10;99.90
24207;DHT22;12351;52.284;9.160;2022-12-15T04:25:21;-3.00;99.90
24207;DHT22;12351;52.284;9.160;2022-12-15T04:28:12;-3.00;99.90
24207;DHT22;12351;52.284;9.160;2022-12-15T04:33:55;-2.90;99.90
24207;DHT22;12351;52.284;9.160;2022-12-15T04:36:47;-2.90;99.90
24207;DHT22;12351;52.284;9.160;2022-12-15T04:39:38;-3.00;99.90
24207;DHT22;12351;52.284;9.160;2022-12-15T04:42:27;-3.00;99.90
24207;DHT22;12351;52.284;9.160;2022-12-15T04:45:21;-3.10;99.90
24207;DHT22;12351;52.284;9.160;2022-12-15T04:48:15;-3.10;99.90
24207;DHT22;12351;52.284;9.160;2022-12-15T04:51:06;-3.10;99.90
24207;DHT22;12351;52.284;9.160;2022-12-15T04:53:54;-3.10;99.90
24207;DHT22;12351;52.284;9.160;2022-12-15T04:56:45;-3.10;99.90
24207;DHT22;12351;52.284;9.160;2022-12-15T04:59:34;-3.10;99.90
24207;DHT22;12351;52.284;9.160;2022-12-15T05:02:24;-3.20;99.90
24207;DHT22;12351;52.284;9.160;2022-12-15T05:05:14;-3.10;99.90
24207;DHT22;12351;52.284;9.160;2022-12-15T05:08:03;-3.10;99.90
24207;DHT22;12351;52.284;9.160;2022-12-15T05:10:54;-3.10;99.90
24207;DHT22;12351;52.284;9.160;2022-12-15T05:13:44;-3.10;99.90
24207;DHT22;12351;52.284;9.160;2022-12-15T05:16:35;-3.20;99.90
24207;DHT22;12351;52.284;9.160;2022-12-15T05:19:27;-3.10;99.90
24207;DHT22;12351;52.284;9.160;2022-12-15T05:22:19;-3.10;99.90
24207;DHT22;12351;52.284;9.160;2022-12-15T05:25:08;-3.10;99.90
24207;DHT22;12351;52.284;9.160;2022-12-15T05:28:03;-3.20;99.90
24207;DHT22;12351;52.284;9.160;2022-12-15T05:30:51;-3.20;99.90
24207;DHT22;12351;52.284;9.160;2022-12-15T05:33:42;-3.20;99.90
24207;DHT22;12351;52.284;9.160;2022-12-15T05:36:32;-3.20;99.90
24207;DHT22;12351;52.284;9.160;2022-12-15T05:39:23;-3.20;99.90
24207;DHT22;12351;52.284;9.160;2022-12-15T05:42:13;-3.10;99.90
24207;DHT22;12351;52.284;9.160;2022-12-15T05:45:06;-3.00;99.90
24207;DHT22;12351;52.284;9.160;2022-12-15T05:47:53;-3.00;99.90
24207;DHT22;12351;52.284;9.160;2022-12-15T05:50:43;-3.00;99.90
24207;DHT22;12351;52.284;9.160;2022-12-15T05:53:32;-3.00;99.90
24207;DHT22;12351;52.284;9.160;2022-12-15T05:56:24;-3.00;99.90
24207;DHT22;12351;52.284;9.160;2022-12-15T05:59:13;-3.00;99.90
24207;DHT22;12351;52.284;9.160;2022-12-15T06:02:05;-3.00;99.90
24207;DHT22;12351;52.284;9.160;2022-12-15T06:04:53;-3.00;99.90
24207;DHT22;12351;52.284;9.160;2022-12-15T06:07:44;-2.90;99.90
24207;DHT22;12351;52.284;9.160;2022-12-15T06:10:35;-2.90;99.90
24207;DHT22;12351;52.284;9.160;2022-12-15T06:13:27;-2.90;99.90
24207;DHT22;12351;52.284;9.160;2022-12-15T06:16:18;-2.90;99.90
24207;DHT22;12351;52.284;9.160;2022-12-15T06:19:08;-2.90;99.90
24207;DHT22;12351;52.284;9.160;2022-12-15T06:21:58;-2.90;99.90
24207;DHT22;12351;52.284;9.160;2022-12-15T06:24:48;-2.90;99.90
24207;DHT22;12351;52.284;9.160;2022-12-15T06:27:37;-2.90;99.90
24207;DHT22;12351;52.284;9.160;2022-12-15T06:30:29;-2.90;99.90
24207;DHT22;12351;52.284;9.160;2022-12-15T06:33:16;-2.90;99.90
24207;DHT22;12351;52.284;9.160;2022-12-15T06:36:09;-2.90;99.90
24207;DHT22;12351;52.284;9.160;2022-12-15T06:38:59;-2.80;99.90
24207;DHT22;12351;52.284;9.160;2022-12-15T06:41:47;-2.80;99.90
24207;DHT22;12351;52.284;9.160;2022-12-15T06:44:39;-2.70;99.90
24207;DHT22;12351;52.284;9.160;2022-12-15T06:47:28;-2.80;99.90
24207;DHT22;12351;52.284;9.160;2022-12-15T06:50:18;-2.70;99.90
24207;DHT22;12351;52.284;9.160;2022-12-15T06:53:06;-2.70;99.90
24207;DHT22;12351;52.284;9.160;2022-12-15T06:55:59;-2.70;99.90
24207;DHT22;12351;52.284;9.160;2022-12-15T06:58:47;-2.60;99.90
24207;DHT22;12351;52.284;9.160;2022-12-15T07:01:39;-2.60;99.90
24207;DHT22;12351;52.284;9.160;2022-12-15T07:04:30;-2.60;99.90
24207;DHT22;12351;52.284;9.160;2022-12-15T07:07:19;-2.60;99.90
24207;DHT22;12351;52.284;9.160;2022-12-15T07:10:10;-2.50;99.90
24207;DHT22;12351;52.284;9.160;2022-12-15T07:13:00;-2.60;99.90
24207;DHT22;12351;52.284;9.160;2022-12-15T07:15:47;-2.60;99.90
24207;DHT22;12351;52.284;9.160;2022-12-15T07:18:36;-2.70;99.90
24207;DHT22;12351;52.284;9.160;2022-12-15T07:21:26;-2.70;99.90
24207;DHT22;12351;52.284;9.160;2022-12-15T07:24:17;-2.70;99.90
24207;DHT22;12351;52.284;9.160;2022-12-15T07:27:07;-2.70;99.90
24207;DHT22;12351;52.284;9.160;2022-12-15T07:29:58;-2.80;99.90
24207;DHT22;12351;52.284;9.160;2022-12-15T07:32:47;-2.80;99.90
24207;DHT22;12351;52.284;9.160;2022-12-15T07:35:38;-2.80;99.90
24207;DHT22;12351;52.284;9.160;2022-12-15T07:38:28;-2.70;99.90
24207;DHT22;12351;52.284;9.160;2022-12-15T07:41:19;-2.70;99.90
24207;DHT22;12351;52.284;9.160;2022-12-15T07:44:07;-2.60;99.90
24207;DHT22;12351;52.284;9.160;2022-12-15T07:46:58;-2.70;99.90
24207;DHT22;12351;52.284;9.160;2022-12-15T07:49:49;-2.60;99.90
24207;DHT22;12351;52.284;9.160;2022-12-15T07:52:37;-2.70;99.90
24207;DHT22;12351;52.284;9.160;2022-12-15T07:55:27;-2.70;99.90
24207;DHT22;12351;52.284;9.160;2022-12-15T07:58:19;-2.60;99.90
24207;DHT22;12351;52.284;9.160;2022-12-15T08:01:10;-2.60;99.90
24207;DHT22;12351;52.284;9.160;2022-12-15T08:03:56;-2.60;99.90
24207;DHT22;12351;52.284;9.160;2022-12-15T08:06:46;-2.60;99.90
24207;DHT22;12351;52.284;9.160;2022-12-15T08:09:36;-2.50;99.90
24207;DHT22;12351;52.284;9.160;2022-12-15T08:12:27;-2.50;99.90
24207;DHT22;12351;52.284;9.160;2022-12-15T08:15:15;-2.40;99.90
24207;DHT22;12351;52.284;9.160;2022-12-15T08:18:06;-2.40;99.90
24207;DHT22;12351;52.284;9.160;2022-12-15T08:20:55;-2.50;99.90
24207;DHT22;12351;52.284;9.160;2022-12-15T08:23:45;-2.50;99.90
24207;DHT22;12351;52.284;9.160;2022-12-15T08:26:34;-2.50;99.90
24207;DHT22;12351;52.284;9.160;2022-12-15T08:29:24;-2.40;99.90
24207;DHT22;12351;52.284;9.160;2022-12-15T08:32:17;-2.40;99.90
24207;DHT22;12351;52.284;9.160;2022-12-15T08:35:05;-2.40;99.90
24207;DHT22;12351;52.284;9.160;2022-12-15T08:37:58;-2.40;99.90
24207;DHT22;12351;52.284;9.160;2022-12-15T08:40:48;-2.30;99.90
24207;DHT22;12351;52.284;9.160;2022-12-15T08:43:39;-2.30;99.90
24207;DHT22;12351;52.284;9.160;2022-12-15T08:46:28;-2.20;99.90
24207;DHT22;12351;52.284;9.160;2022-12-15T08:49:17;-2.20;99.90
24207;DHT22;12351;52.284;9.160;2022-12-15T08:52:08;-2.20;99.90
24207;DHT22;12351;52.284;9.160;2022-12-15T08:55:00;-2.20;99.90
24207;DHT22;12351;52.284;9.160;2022-12-15T08:57:47;-2.20;99.90
24207;DHT22;12351;52.284;9.160;2022-12-15T09:00:35;-2.20;99.90
24207;DHT22;12351;52.284;9.160;2022-12-15T09:03:22;-2.10;99.90
24207;DHT22;12351;52.284;9.160;2022-12-15T09:06:14;-2.10;99.90
24207;DHT22;12351;52.284;9.160;2022-12-15T09:09:07;-2.00;99.90
24207;DHT22;12351;52.284;9.160;2022-12-15T09:11:58;-2.00;99.90
24207;DHT22;12351;52.284;9.160;2022-12-15T09:14:46;-1.90;99.90
24207;DHT22;12351;52.284;9.160;2022-12-15T09:17:35;-1.80;99.90
24207;DHT22;12351;52.284;9.160;2022-12-15T09:20:25;-1.80;99.90
24207;DHT22;12351;52.284;9.160;2022-12-15T09:23:15;-1.70;99.90
24207;DHT22;12351;52.284;9.160;2022-12-15T09:26:05;-1.70;99.90
24207;DHT22;12351;52.284;9.160;2022-12-15T09:28:53;-1.70;99.90
24207;DHT22;12351;52.284;9.160;2022-12-15T09:31:43;-1.70;99.90
24207;DHT22;12351;52.284;9.160;2022-12-15T09:34:31;-1.60;99.90
24207;DHT22;12351;52.284;9.160;2022-12-15T09:37:20;-1.60;99.90
24207;DHT22;12351;52.284;9.160;2022-12-15T09:40:10;-1.60;99.90
24207;DHT22;12351;52.284;9.160;2022-12-15T09:43:01;-1.50;99.90
24207;DHT22;12351;52.284;9.160;2022-12-15T09:45:55;-1.50;99.90
24207;DHT22;12351;52.284;9.160;2022-12-15T09:48:43;-1.50;99.90
24207;DHT22;12351;52.284;9.160;2022-12-15T09:51:35;-1.40;99.90
24207;DHT22;12351;52.284;9.160;2022-12-15T09:54:23;-1.40;99.90
24207;DHT22;12351;52.284;9.160;2022-12-15T09:57:16;-1.40;99.90
24207;DHT22;12351;52.284;9.160;2022-12-15T10:08:39;-1.30;99.90
24207;DHT22;12351;52.284;9.160;2022-12-15T10:14:20;-1.20;99.90
24207;DHT22;12351;52.284;9.160;2022-12-15T10:22:49;-1.10;99.90
24207;DHT22;12351;52.284;9.160;2022-12-15T10:25:39;-1.00;99.90
24207;DHT22;12351;52.284;9.160;2022-12-15T10:31:22;-1.00;99.90
24207;DHT22;12351;52.284;9.160;2022-12-15T10:37:04;-1.00;99.90
24207;DHT22;12351;52.284;9.160;2022-12-15T10:39:53;-0.90;99.90
24207;DHT22;12351;52.284;9.160;2022-12-15T10:42:45;-0.90;99.90
24207;DHT22;12351;52.284;9.160;2022-12-15T10:45:34;-0.80;99.90
24207;DHT22;12351;52.284;9.160;2022-12-15T10:48:26;-0.80;99.90
24207;DHT22;12351;52.284;9.160;2022-12-15T10:54:08;-0.70;99.90
24207;DHT22;12351;52.284;9.160;2022-12-15T10:56:58;-0.70;99.90
24207;DHT22;12351;52.284;9.160;2022-12-15T10:59:49;-0.60;99.90
24207;DHT22;12351;52.284;9.160;2022-12-15T11:02:37;-0.60;99.90
24207;DHT22;12351;52.284;9.160;2022-12-15T11:05:26;-0.50;99.90
24207;DHT22;12351;52.284;9.160;2022-12-15T11:08:17;-0.50;99.90
24207;DHT22;12351;52.284;9.160;2022-12-15T11:16:52;-0.50;99.90
24207;DHT22;12351;52.284;9.160;2022-12-15T11:22:36;-0.30;99.90
24207;DHT22;12351;52.284;9.160;2022-12-15T11:25:27;-0.20;99.90
24207;DHT22;12351;52.284;9.160;2022-12-15T11:28:17;-0.20;99.90
24207;DHT22;12351;52.284;9.160;2022-12-15T11:33:56;-0.20;99.90
24207;DHT22;12351;52.284;9.160;2022-12-15T11:39:40;-0.10;99.90
24207;DHT22;12351;52.284;9.160;2022-12-15T11:42:33;0.00;99.90
24207;DHT22;12351;52.284;9.160;2022-12-15T11:51:02;0.00;99.90
24207;DHT22;12351;52.284;9.160;2022-12-15T11:56:44;0.00;99.90
24207;DHT22;12351;52.284;9.160;2022-12-15T11:59:37;0.00;99.90
24207;DHT22;12351;52.284;9.160;2022-12-15T12:22:12;0.10;99.90
24207;DHT22;12351;52.284;9.160;2022-12-15T12:25:02;0.10;99.90
24207;DHT22;12351;52.284;9.160;2022-12-15T12:27:53;0.10;99.90
24207;DHT22;12351;52.284;9.160;2022-12-15T12:30:43;0.20;99.90
24207;DHT22;12351;52.284;9.160;2022-12-15T12:33:32;0.20;99.90
24207;DHT22;12351;52.284;9.160;2022-12-15T12:36:21;0.30;99.90
24207;DHT22;12351;52.284;9.160;2022-12-15T12:39:14;0.40;99.90
24207;DHT22;12351;52.284;9.160;2022-12-15T12:42:04;0.50;99.90
24207;DHT22;12351;52.284;9.160;2022-12-15T12:44:48;0.50;99.90
24207;DHT22;12351;52.284;9.160;2022-12-15T12:47:40;0.50;99.90
24207;DHT22;12351;52.284;9.160;2022-12-15T12:50:29;0.40;99.90
24207;DHT22;12351;52.284;9.160;2022-12-15T12:59:04;0.30;99.90
24207;DHT22;12351;52.284;9.160;2022-12-15T13:07:36;0.20;99.90
24207;DHT22;12351;52.284;9.160;2022-12-15T13:10:25;0.30;99.90
24207;DHT22;12351;52.284;9.160;2022-12-15T13:16:08;0.30;99.90
24207;DHT22;12351;52.284;9.160;2022-12-15T13:18:56;0.30;99.90
24207;DHT22;12351;52.284;9.160;2022-12-15T13:21:50;0.30;99.90
24207;DHT22;12351;52.284;9.160;2022-12-15T13:30:18;0.40;99.90
24207;DHT22;12351;52.284;9.160;2022-12-15T13:35:57;0.40;99.90
24207;DHT22;12351;52.284;9.160;2022-12-15T13:41:38;0.50;99.90
24207;DHT22;12351;52.284;9.160;2022-12-15T13:47:21;0.40;99.90
24207;DHT22;12351;52.284;9.160;2022-12-15T13:50:11;0.40;99.90
24207;DHT22;12351;52.284;9.160;2022-12-15T13:52:59;0.50;99.90
24207;DHT22;12351;52.284;9.160;2022-12-15T13:55:52;0.50;99.90
24207;DHT22;12351;52.284;9.160;2022-12-15T13:58:40;0.50;99.90
24207;DHT22;12351;52.284;9.160;2022-12-15T14:01:30;0.50;99.90
24207;DHT22;12351;52.284;9.160;2022-12-15T14:04:20;0.50;99.90
24207;DHT22;12351;52.284;9.160;2022-12-15T14:07:08;0.50;99.90
24207;DHT22;12351;52.284;9.160;2022-12-15T14:09:59;0.50;99.90
24207;DHT22;12351;52.284;9.160;2022-12-15T14:12:49;0.50;99.90
24207;DHT22;12351;52.284;9.160;2022-12-15T14:15:41;0.60;99.90
24207;DHT22;12351;52.284;9.160;2022-12-15T14:18:32;0.60;99.90
24207;DHT22;12351;52.284;9.160;2022-12-15T14:21:21;0.60;99.90
24207;DHT22;12351;52.284;9.160;2022-12-15T14:24:20;0.50;99.90
24207;DHT22;12351;52.284;9.160;2022-12-15T14:27:07;0.50;99.90
24207;DHT22;12351;52.284;9.160;2022-12-15T14:32:49;0.50;99.90
24207;DHT22;12351;52.284;9.160;2022-12-15T14:35:38;0.50;99.90
24207;DHT22;12351;52.284;9.160;2022-12-15T14:38:31;0.50;99.90
24207;DHT22;12351;52.284;9.160;2022-12-15T14:41:22;0.50;99.90
24207;DHT22;12351;52.284;9.160;2022-12-15T14:44:15;0.40;99.90
24207;DHT22;12351;52.284;9.160;2022-12-15T14:47:00;0.40;99.90
24207;DHT22;12351;52.284;9.160;2022-12-15T14:49:51;0.40;99.90
24207;DHT22;12351;52.284;9.160;2022-12-15T14:52:43;0.30;99.90
24207;DHT22;12351;52.284;9.160;2022-12-15T14:55:34;0.30;99.90
24207;DHT22;12351;52.284;9.160;2022-12-15T15:04:05;0.30;99.90
24207;DHT22;12351;52.284;9.160;2022-12-15T15:06:54;0.30;99.90
24207;DHT22;12351;52.284;9.160;2022-12-15T15:09:46;0.30;99.90
24207;DHT22;12351;52.284;9.160;2022-12-15T15:15:27;0.20;99.90
24207;DHT22;12351;52.284;9.160;2022-12-15T15:18:17;0.20;99.90
24207;DHT22;12351;52.284;9.160;2022-12-15T15:21:10;0.20;99.90
24207;DHT22;12351;52.284;9.160;2022-12-15T15:24:01;0.10;99.90
24207;DHT22;12351;52.284;9.160;2022-12-15T15:26:50;0.00;99.90
24207;DHT22;12351;52.284;9.160;2022-12-15T15:29:42;0.00;99.90
24207;DHT22;12351;52.284;9.160;2022-12-15T15:32:31;0.00;99.90
24207;DHT22;12351;52.284;9.160;2022-12-15T15:35:22;0.00;99.90
24207;DHT22;12351;52.284;9.160;2022-12-15T15:43:57;-0.10;99.90
24207;DHT22;12351;52.284;9.160;2022-12-15T15:46:47;-0.20;99.90
24207;DHT22;12351;52.284;9.160;2022-12-15T15:49:39;-0.20;99.90
24207;DHT22;12351;52.284;9.160;2022-12-15T15:52:30;-0.20;99.90
24207;DHT22;12351;52.284;9.160;2022-12-15T15:55:22;-0.30;99.90
24207;DHT22;12351;52.284;9.160;2022-12-15T15:58:10;-0.30;99.90
24207;DHT22;12351;52.284;9.160;2022-12-15T16:00:58;-0.30;99.90
24207;DHT22;12351;52.284;9.160;2022-12-15T16:03:47;-0.30;99.90
24207;DHT22;12351;52.284;9.160;2022-12-15T16:06:36;-0.30;99.90
24207;DHT22;12351;52.284;9.160;2022-12-15T16:09:26;-0.40;99.90
24207;DHT22;12351;52.284;9.160;2022-12-15T16:18:00;-0.30;99.90
24207;DHT22;12351;52.284;9.160;2022-12-15T16:20:49;-0.30;99.90
24207;DHT22;12351;52.284;9.160;2022-12-15T16:23:40;-0.30;99.90
24207;DHT22;12351;52.284;9.160;2022-12-15T16:26:33;-0.30;99.90
24207;DHT22;12351;52.284;9.160;2022-12-15T16:29:24;-0.40;99.90
24207;DHT22;12351;52.284;9.160;2022-12-15T16:32:12;-0.40;99.90
24207;DHT22;12351;52.284;9.160;2022-12-15T16:35:01;-0.40;99.90
24207;DHT22;12351;52.284;9.160;2022-12-15T16:37:52;-0.30;99.90
24207;DHT22;12351;52.284;9.160;2022-12-15T16:40:40;-0.30;99.90
24207;DHT22;12351;52.284;9.160;2022-12-15T16:43:30;-0.20;99.90
24207;DHT22;12351;52.284;9.160;2022-12-15T16:46:18;-0.30;99.90
24207;DHT22;12351;52.284;9.160;2022-12-15T16:49:04;-0.30;99.90
24207;DHT22;12351;52.284;9.160;2022-12-15T16:51:52;-0.30;99.90
24207;DHT22;12351;52.284;9.160;2022-12-15T16:54:38;-0.30;99.90
24207;DHT22;12351;52.284;9.160;2022-12-15T16:57:26;-0.30;99.90
24207;DHT22;12351;52.284;9.160;2022-12-15T17:00:16;-0.40;99.90
24207;DHT22;12351;52.284;9.160;2022-12-15T17:03:02;-0.40;99.90
24207;DHT22;12351;52.284;9.160;2022-12-15T17:05:53;-0.40;99.90
24207;DHT22;12351;52.284;9.160;2022-12-15T17:08:42;-0.40;99.90
24207;DHT22;12351;52.284;9.160;2022-12-15T17:11:29;-0.40;99.90
24207;DHT22;12351;52.284;9.160;2022-12-15T17:14:15;-0.40;99.90
24207;DHT22;12351;52.284;9.160;2022-12-15T17:17:04;-0.40;99.90
24207;DHT22;12351;52.284;9.160;2022-12-15T17:19:49;-0.40;99.90
24207;DHT22;12351;52.284;9.160;2022-12-15T17:22:36;-0.30;99.90
24207;DHT22;12351;52.284;9.160;2022-12-15T17:25:25;-0.40;99.90
24207;DHT22;12351;52.284;9.160;2022-12-15T17:28:15;-0.30;99.90
24207;DHT22;12351;52.284;9.160;2022-12-15T17:31:02;-0.40;99.90
24207;DHT22;12351;52.284;9.160;2022-12-15T17:33:49;-0.30;99.90
24207;DHT22;12351;52.284;9.160;2022-12-15T17:36:35;-0.40;99.90
24207;DHT22;12351;52.284;9.160;2022-12-15T17:39:22;-0.40;99.90
24207;DHT22;12351;52.284;9.160;2022-12-15T17:42:14;-0.40;99.90
24207;DHT22;12351;52.284;9.160;2022-12-15T17:44:58;-0.40;99.90
24207;DHT22;12351;52.284;9.160;2022-12-15T17:47:44;-0.30;99.90
24207;DHT22;12351;52.284;9.160;2022-12-15T17:50:31;-0.30;99.90
24207;DHT22;12351;52.284;9.160;2022-12-15T17:53:19;-0.30;99.90
24207;DHT22;12351;52.284;9.160;2022-12-15T17:56:09;-0.30;99.90
24207;DHT22;12351;52.284;9.160;2022-12-15T17:58:56;-0.20;99.90
24207;DHT22;12351;52.284;9.160;2022-12-15T18:01:43;-0.30;99.90
24207;DHT22;12351;52.284;9.160;2022-12-15T18:04:30;-0.40;99.90
24207;DHT22;12351;52.284;9.160;2022-12-15T18:07:19;-0.30;99.90
24207;DHT22;12351;52.284;9.160;2022-12-15T18:10:11;-0.30;99.90
24207;DHT22;12351;52.284;9.160;2022-12-15T18:12:54;-0.30;99.90
24207;DHT22;12351;52.284;9.160;2022-12-15T18:15:41;-0.40;99.90
24207;DHT22;12351;52.284;9.160;2022-12-15T18:18:27;-0.40;99.90
24207;DHT22;12351;52.284;9.160;2022-12-15T18:21:16;-0.40;99.90
24207;DHT22;12351;52.284;9.160;2022-12-15T18:24:09;-0.40;99.90
24207;DHT22;12351;52.284;9.160;2022-12-15T18:26:51;-0.40;99.90
24207;DHT22;12351;52.284;9.160;2022-12-15T18:29:37;-0.40;99.90
24207;DHT22;12351;52.284;9.160;2022-12-15T18:32:26;-0.40;99.90
24207;DHT22;12351;52.284;9.160;2022-12-15T18:35:16;-0.40;99.90
24207;DHT22;12351;52.284;9.160;2022-12-15T18:40:56;-0.40;99.90
24207;DHT22;12351;52.284;9.160;2022-12-15T18:46:33;-0.50;99.90
24207;DHT22;12351;52.284;9.160;2022-12-15T18:49:20;-0.50;99.90
24207;DHT22;12351;52.284;9.160;2022-12-15T18:54:56;-0.50;99.90
24207;DHT22;12351;52.284;9.160;2022-12-15T18:57:42;-0.40;99.90
24207;DHT22;12351;52.284;9.160;2022-12-15T19:00:29;-0.50;99.90
24207;DHT22;12351;52.284;9.160;2022-12-15T19:03:16;-0.40;99.90
24207;DHT22;12351;52.284;9.160;2022-12-15T19:06:08;-0.40;99.90
24207;DHT22;12351;52.284;9.160;2022-12-15T19:08:54;-0.40;99.90
24207;DHT22;12351;52.284;9.160;2022-12-15T19:11:40;-0.40;99.90
24207;DHT22;12351;52.284;9.160;2022-12-15T19:14:28;-0.40;99.90
24207;DHT22;12351;52.284;9.160;2022-12-15T19:17:18;-0.40;99.90
24207;DHT22;12351;52.284;9.160;2022-12-15T19:22:57;-0.40;99.90
24207;DHT22;12351;52.284;9.160;2022-12-15T19:25:45;-0.40;99.90
24207;DHT22;12351;52.284;9.160;2022-12-15T19:28:32;-0.40;99.90
24207;DHT22;12351;52.284;9.160;2022-12-15T19:31:18;-0.40;99.90
24207;DHT22;12351;52.284;9.160;2022-12-15T19:34:05;-0.50;99.90
24207;DHT22;12351;52.284;9.160;2022-12-15T19:36:52;-0.50;99.90
24207;DHT22;12351;52.284;9.160;2022-12-15T19:39:41;-0.60;99.90
24207;DHT22;12351;52.284;9.160;2022-12-15T19:42:30;-0.70;99.90
24207;DHT22;12351;52.284;9.160;2022-12-15T19:45:20;-0.80;99.90
24207;DHT22;12351;52.284;9.160;2022-12-15T19:48:09;-0.70;99.90
24207;DHT22;12351;52.284;9.160;2022-12-15T19:50:56;-0.70;99.90
24207;DHT22;12351;52.284;9.160;2022-12-15T19:53:44;-0.60;99.90
24207;DHT22;12351;52.284;9.160;2022-12-15T19:56:31;-0.50;99.90
24207;DHT22;12351;52.284;9.160;2022-12-15T19:59:21;-0.60;99.90
24207;DHT22;12351;52.284;9.160;2022-12-15T20:04:57;-0.60;99.90
24207;DHT22;12351;52.284;9.160;2022-12-15T20:07:45;-0.60;99.90
24207;DHT22;12351;52.284;9.160;2022-12-15T20:10:32;-0.60;99.90
24207;DHT22;12351;52.284;9.160;2022-12-15T20:13:19;-0.60;99.90
24207;DHT22;12351;52.284;9.160;2022-12-15T20:16:06;-0.60;99.90
24207;DHT22;12351;52.284;9.160;2022-12-15T20:18:54;-0.70;99.90
24207;DHT22;12351;52.284;9.160;2022-12-15T20:21:41;-0.70;99.90
24207;DHT22;12351;52.284;9.160;2022-12-15T20:24:28;-0.70;99.90
24207;DHT22;12351;52.284;9.160;2022-12-15T20:27:17;-0.70;99.90
24207;DHT22;12351;52.284;9.160;2022-12-15T20:30:06;-0.80;99.90
24207;DHT22;12351;52.284;9.160;2022-12-15T20:32:52;-0.80;99.90
24207;DHT22;12351;52.284;9.160;2022-12-15T20:35:40;-0.80;99.90